sensor_id;sensor_type;location;lat;lon;timestamp;pressure;altitude;pressure_sealevel;temperature;humidity
20077;BME280;12348;42.710;23.378;2024-03-08T00:00:06;95176.03;;;5.61;100.00
20077;BME280;12348;42.710;23.378;2024-03-08T00:02:50;95183.66;;;5.42;100.00
20077;BME280;12348;42.710;23.378;2024-03-08T00:05:17;95175.13;;;5.45;100.00
20077;BME280;12348;42.710;23.378;2024-03-08T00:07:44;95176.69;;;5.41;100.00
20077;BME280;12348;42.710;23.378;2024-03-08T00:10:12;95174.19;;;5.29;100.00
20077;BME280;12348;42.710;23.378;2024-03-08T00:12:43;95179.47;;;5.19;100.00
20077;BME280;12348;42.710;23.378;2024-03-08T00:15:10;95179.06;;;5.38;100.00
20077;BME280;12348;42.710;23.378;2024-03-08T00:17:39;95175.84;;;5.35;100.00
20077;BME280;12348;42.710;23.378;2024-03-08T00:20:06;95173.38;;;5.24;100.00
20077;BME280;12348;42.710;23.378;2024-03-08T00:22:34;95178.91;;;5.17;100.00
20077;BME280;12348;42.710;23.378;2024-03-08T00:25:01;95173.25;;;5.08;100.00
20077;BME280;12348;42.710;23.378;2024-03-08T00:27:28;95174.50;;;5.01;100.00
20077;BME280;12348;42.710;23.378;2024-03-08T00:29:58;95181.59;;;4.90;100.00
20077;BME280;12348;42.710;23.378;2024-03-08T00:32:24;95168.19;;;4.85;100.00
20077;BME280;12348;42.710;23.378;2024-03-08T00:34:52;95170.25;;;4.78;100.00
20077;BME280;12348;42.710;23.378;2024-03-08T00:37:19;95172.66;;;4.74;100.00
20077;BME280;12348;42.710;23.378;2024-03-08T00:39:47;95163.44;;;4.87;100.00
20077;BME280;12348;42.710;23.378;2024-03-08T00:42:14;95168.00;;;4.92;100.00
20077;BME280;12348;42.710;23.378;2024-03-08T00:44:41;95163.09;;;4.78;100.00
20077;BME280;12348;42.710;23.378;2024-03-08T00:47:09;95163.22;;;4.67;100.00
20077;BME280;12348;42.710;23.378;2024-03-08T00:49:37;95154.88;;;4.58;100.00
20077;BME280;12348;42.710;23.378;2024-03-08T00:52:04;95151.91;;;4.54;100.00
20077;BME280;12348;42.710;23.378;2024-03-08T00:54:31;95153.41;;;4.45;100.00
20077;BME280;12348;42.710;23.378;2024-03-08T00:56:58;95148.28;;;4.38;100.00
20077;BME280;12348;42.710;23.378;2024-03-08T00:59:25;95148.00;;;4.40;100.00
20077;BME280;12348;42.710;23.378;2024-03-08T01:04:29;95144.53;;;4.67;100.00
20077;BME280;12348;42.710;23.378;2024-03-08T01:06:56;95134.25;;;4.48;100.00
20077;BME280;12348;42.710;23.378;2024-03-08T01:09:22;95140.28;;;4.38;100.00
20077;BME280;12348;42.710;23.378;2024-03-08T01:11:49;95140.78;;;4.35;100.00
20077;BME280;12348;42.710;23.378;2024-03-08T01:14:16;95130.56;;;4.27;100.00
20077;BME280;12348;42.710;23.378;2024-03-08T01:16:43;95135.22;;;4.37;100.00
20077;BME280;12348;42.710;23.378;2024-03-08T01:19:09;95124.31;;;4.44;100.00
20077;BME280;12348;42.710;23.378;2024-03-08T01:21:37;95128.94;;;4.48;100.00
20077;BME280;12348;42.710;23.378;2024-03-08T01:24:04;95126.00;;;4.50;100.00
20077;BME280;12348;42.710;23.378;2024-03-08T01:26:31;95115.19;;;4.34;100.00
20077;BME280;12348;42.710;23.378;2024-03-08T01:28:59;95117.19;;;4.22;100.00
20077;BME280;12348;42.710;23.378;2024-03-08T01:31:27;95108.63;;;4.20;100.00
20077;BME280;12348;42.710;23.378;2024-03-08T01:33:54;95118.47;;;4.20;100.00
20077;BME280;12348;42.710;23.378;2024-03-08T01:36:21;95111.47;;;4.13;100.00
20077;BME280;12348;42.710;23.378;2024-03-08T01:38:49;95114.13;;;4.13;100.00
20077;BME280;12348;42.710;23.378;2024-03-08T01:41:16;95108.50;;;4.10;100.00
20077;BME280;12348;42.710;23.378;2024-03-08T01:43:43;95111.63;;;4.29;100.00
20077;BME280;12348;42.710;23.378;2024-03-08T01:46:10;95105.72;;;4.49;100.00
20077;BME280;12348;42.710;23.378;2024-03-08T01:48:40;95110.69;;;4.40;100.00
20077;BME280;12348;42.710;23.378;2024-03-08T01:51:08;95107.03;;;4.46;100.00
20077;BME280;12348;42.710;23.378;2024-03-08T01:53:35;95103.09;;;4.54;100.00
20077;BME280;12348;42.710;23.378;2024-03-08T01:56:05;95107.34;;;4.50;100.00
20077;BME280;12348;42.710;23.378;2024-03-08T01:58:32;95104.16;;;4.53;100.00
20077;BME280;12348;42.710;23.378;2024-03-08T02:00:59;95105.19;;;4.52;100.00
20077;BME280;12348;42.710;23.378;2024-03-08T02:03:30;95105.47;;;4.50;100.00
20077;BME280;12348;42.710;23.378;2024-03-08T02:05:57;95099.34;;;4.50;100.00
20077;BME280;12348;42.710;23.378;2024-03-08T02:08:25;95097.44;;;4.45;100.00
20077;BME280;12348;42.710;23.378;2024-03-08T02:10:51;95104.31;;;4.41;100.00
20077;BME280;12348;42.710;23.378;2024-03-08T02:13:20;95105.31;;;4.35;100.00
20077;BME280;12348;42.710;23.378;2024-03-08T02:15:54;95101.75;;;4.24;100.00
20077;BME280;12348;42.710;23.378;2024-03-08T02:18:21;95102.22;;;4.21;100.00
20077;BME280;12348;42.710;23.378;2024-03-08T02:20:50;95106.44;;;4.17;100.00
20077;BME280;12348;42.710;23.378;2024-03-08T02:23:18;95106.72;;;4.16;100.00
20077;BME280;12348;42.710;23.378;2024-03-08T02:25:46;95113.34;;;4.13;100.00
20077;BME280;12348;42.710;23.378;2024-03-08T02:28:13;95105.28;;;4.08;100.00
20077;BME280;12348;42.710;23.378;2024-03-08T02:30:40;95120.38;;;4.24;100.00
20077;BME280;12348;42.710;23.378;2024-03-08T02:33:08;95110.19;;;4.43;100.00
20077;BME280;12348;42.710;23.378;2024-03-08T02:35:35;95118.38;;;4.36;100.00
20077;BME280;12348;42.710;23.378;2024-03-08T02:38:03;95120.97;;;4.26;100.00
20077;BME280;12348;42.710;23.378;2024-03-08T02:40:30;95114.94;;;4.14;100.00
20077;BME280;12348;42.710;23.378;2024-03-08T02:42:57;95126.44;;;4.15;100.00
20077;BME280;12348;42.710;23.378;2024-03-08T02:45:24;95125.28;;;4.10;100.00
20077;BME280;12348;42.710;23.378;2024-03-08T02:47:51;95122.22;;;4.19;100.00
20077;BME280;12348;42.710;23.378;2024-03-08T02:50:18;95124.53;;;4.64;100.00
20077;BME280;12348;42.710;23.378;2024-03-08T02:52:44;95124.03;;;4.40;100.00
20077;BME280;12348;42.710;23.378;2024-03-08T02:55:13;95119.84;;;4.22;100.00
20077;BME280;12348;42.710;23.378;2024-03-08T02:57:41;95124.75;;;4.08;100.00
20077;BME280;12348;42.710;23.378;2024-03-08T03:00:09;95117.91;;;3.96;100.00
20077;BME280;12348;42.710;23.378;2024-03-08T03:02:36;95118.19;;;3.94;100.00
20077;BME280;12348;42.710;23.378;2024-03-08T03:05:04;95120.84;;;3.94;100.00
20077;BME280;12348;42.710;23.378;2024-03-08T03:07:31;95121.63;;;3.95;100.00
20077;BME280;12348;42.710;23.378;2024-03-08T03:09:59;95125.28;;;4.10;100.00
20077;BME280;12348;42.710;23.378;2024-03-08T03:12:28;95128.41;;;4.02;100.00
20077;BME280;12348;42.710;23.378;2024-03-08T03:14:55;95126.84;;;4.06;100.00
20077;BME280;12348;42.710;23.378;2024-03-08T03:17:22;95129.31;;;4.13;100.00
20077;BME280;12348;42.710;23.378;2024-03-08T03:19:49;95128.47;;;4.07;100.00
20077;BME280;12348;42.710;23.378;2024-03-08T03:22:17;95133.22;;;4.05;100.00
20077;BME280;12348;42.710;23.378;2024-03-08T03:24:43;95135.28;;;3.98;100.00
20077;BME280;12348;42.710;23.378;2024-03-08T03:27:11;95139.00;;;3.97;100.00
20077;BME280;12348;42.710;23.378;2024-03-08T03:29:40;95140.06;;;3.96;100.00
20077;BME280;12348;42.710;23.378;2024-03-08T03:32:07;95144.31;;;3.97;100.00
20077;BME280;12348;42.710;23.378;2024-03-08T03:34:34;95146.38;;;3.90;100.00
20077;BME280;12348;42.710;23.378;2024-03-08T03:37:02;95144.81;;;3.94;100.00
20077;BME280;12348;42.710;23.378;2024-03-08T03:39:29;95143.69;;;3.90;100.00
20077;BME280;12348;42.710;23.378;2024-03-08T03:41:57;95149.03;;;3.90;100.00
20077;BME280;12348;42.710;23.378;2024-03-08T03:44:24;95155.34;;;3.84;100.00
20077;BME280;12348;42.710;23.378;2024-03-08T03:46:52;95161.28;;;3.91;100.00
20077;BME280;12348;42.710;23.378;2024-03-08T03:49:18;95153.88;;;3.93;100.00
20077;BME280;12348;42.710;23.378;2024-03-08T03:51:45;95158.31;;;3.87;100.00
20077;BME280;12348;42.710;23.378;2024-03-08T03:54:12;95161.47;;;4.06;100.00
20077;BME280;12348;42.710;23.378;2024-03-08T03:56:39;95172.50;;;3.93;100.00
20077;BME280;12348;42.710;23.378;2024-03-08T03:59:06;95169.22;;;3.86;100.00
20077;BME280;12348;42.710;23.378;2024-03-08T04:01:32;95164.81;;;3.75;100.00
20077;BME280;12348;42.710;23.378;2024-03-08T04:04:01;95167.53;;;3.80;100.00
20077;BME280;12348;42.710;23.378;2024-03-08T04:06:27;95170.28;;;3.85;100.00
20077;BME280;12348;42.710;23.378;2024-03-08T04:08:54;95175.09;;;3.88;100.00
20077;BME280;12348;42.710;23.378;2024-03-08T04:11:21;95181.56;;;3.92;100.00
20077;BME280;12348;42.710;23.378;2024-03-08T04:13:48;95179.94;;;3.91;100.00
20077;BME280;12348;42.710;23.378;2024-03-08T04:16:15;95178.00;;;3.86;100.00
20077;BME280;12348;42.710;23.378;2024-03-08T04:18:42;95185.69;;;3.83;100.00
20077;BME280;12348;42.710;23.378;2024-03-08T04:21:10;95188.91;;;3.85;100.00
20077;BME280;12348;42.710;23.378;2024-03-08T04:23:37;95181.25;;;3.88;100.00
20077;BME280;12348;42.710;23.378;2024-03-08T04:26:03;95193.41;;;3.84;100.00
20077;BME280;12348;42.710;23.378;2024-03-08T04:28:32;95193.50;;;3.89;100.00
20077;BME280;12348;42.710;23.378;2024-03-08T04:30:58;95200.22;;;3.92;100.00
20077;BME280;12348;42.710;23.378;2024-03-08T04:33:27;95194.13;;;3.97;100.00
20077;BME280;12348;42.710;23.378;2024-03-08T04:35:54;95199.06;;;3.88;100.00
20077;BME280;12348;42.710;23.378;2024-03-08T04:38:23;95205.16;;;4.05;100.00
20077;BME280;12348;42.710;23.378;2024-03-08T04:40:50;95210.13;;;3.97;100.00
20077;BME280;12348;42.710;23.378;2024-03-08T04:43:17;95213.63;;;4.02;100.00
20077;BME280;12348;42.710;23.378;2024-03-08T04:45:46;95207.03;;;4.05;100.00
20077;BME280;12348;42.710;23.378;2024-03-08T04:48:13;95206.41;;;4.42;100.00
20077;BME280;12348;42.710;23.378;2024-03-08T04:50:40;95209.31;;;4.62;100.00
20077;BME280;12348;42.710;23.378;2024-03-08T04:53:07;95206.88;;;4.82;100.00
20077;BME280;12348;42.710;23.378;2024-03-08T04:55:35;95211.78;;;4.69;100.00
20077;BME280;12348;42.710;23.378;2024-03-08T04:58:03;95207.06;;;4.76;100.00
20077;BME280;12348;42.710;23.378;2024-03-08T05:00:31;95209.56;;;4.60;100.00
20077;BME280;12348;42.710;23.378;2024-03-08T05:02:58;95223.09;;;4.54;100.00
20077;BME280;12348;42.710;23.378;2024-03-08T05:05:24;95218.19;;;4.46;100.00
20077;BME280;12348;42.710;23.378;2024-03-08T05:07:53;95216.81;;;4.43;100.00
20077;BME280;12348;42.710;23.378;2024-03-08T05:10:19;95223.16;;;4.37;100.00
20077;BME280;12348;42.710;23.378;2024-03-08T05:12:47;95230.63;;;4.18;100.00
20077;BME280;12348;42.710;23.378;2024-03-08T05:15:14;95219.59;;;4.09;100.00
20077;BME280;12348;42.710;23.378;2024-03-08T05:17:41;95231.31;;;4.08;100.00
20077;BME280;12348;42.710;23.378;2024-03-08T05:20:08;95245.00;;;4.17;100.00
20077;BME280;12348;42.710;23.378;2024-03-08T05:22:37;95235.59;;;4.09;100.00
20077;BME280;12348;42.710;23.378;2024-03-08T05:25:06;95241.09;;;4.03;100.00
20077;BME280;12348;42.710;23.378;2024-03-08T05:27:34;95247.09;;;3.93;100.00
20077;BME280;12348;42.710;23.378;2024-03-08T05:30:03;95240.66;;;3.89;100.00
20077;BME280;12348;42.710;23.378;2024-03-08T05:32:31;95257.91;;;3.86;100.00
20077;BME280;12348;42.710;23.378;2024-03-08T05:34:58;95268.72;;;3.80;100.00
20077;BME280;12348;42.710;23.378;2024-03-08T05:37:24;95261.31;;;3.65;100.00
20077;BME280;12348;42.710;23.378;2024-03-08T05:39:51;95270.41;;;3.69;100.00
20077;BME280;12348;42.710;23.378;2024-03-08T05:42:19;95273.38;;;4.06;100.00
20077;BME280;12348;42.710;23.378;2024-03-08T05:44:46;95276.13;;;3.95;100.00
20077;BME280;12348;42.710;23.378;2024-03-08T05:47:14;95277.63;;;3.85;100.00
20077;BME280;12348;42.710;23.378;2024-03-08T05:49:42;95285.03;;;3.83;100.00
20077;BME280;12348;42.710;23.378;2024-03-08T05:52:10;95298.50;;;3.77;100.00
20077;BME280;12348;42.710;23.378;2024-03-08T05:54:37;95290.13;;;3.68;100.00
20077;BME280;12348;42.710;23.378;2024-03-08T05:57:04;95297.63;;;3.71;100.00
20077;BME280;12348;42.710;23.378;2024-03-08T05:59:31;95293.69;;;3.74;100.00
20077;BME280;12348;42.710;23.378;2024-03-08T06:01:58;95302.69;;;3.73;100.00
20077;BME280;12348;42.710;23.378;2024-03-08T06:04:26;95305.53;;;3.83;100.00
20077;BME280;12348;42.710;23.378;2024-03-08T06:06:54;95301.56;;;4.02;100.00
20077;BME280;12348;42.710;23.378;2024-03-08T06:09:22;95300.66;;;4.13;100.00
20077;BME280;12348;42.710;23.378;2024-03-08T06:11:49;95300.50;;;4.20;100.00
20077;BME280;12348;42.710;23.378;2024-03-08T06:14:16;95310.88;;;4.22;100.00
20077;BME280;12348;42.710;23.378;2024-03-08T06:16:44;95298.97;;;4.46;100.00
20077;BME280;12348;42.710;23.378;2024-03-08T06:19:10;95313.63;;;4.66;100.00
20077;BME280;12348;42.710;23.378;2024-03-08T06:21:40;95310.31;;;4.58;100.00
20077;BME280;12348;42.710;23.378;2024-03-08T06:24:07;95310.63;;;4.62;100.00
20077;BME280;12348;42.710;23.378;2024-03-08T06:26:33;95316.38;;;4.71;100.00
20077;BME280;12348;42.710;23.378;2024-03-08T06:29:03;95308.59;;;4.69;100.00
20077;BME280;12348;42.710;23.378;2024-03-08T06:31:32;95315.94;;;4.79;100.00
20077;BME280;12348;42.710;23.378;2024-03-08T06:33:58;95319.34;;;4.74;100.00
20077;BME280;12348;42.710;23.378;2024-03-08T06:36:25;95325.28;;;4.59;100.00
20077;BME280;12348;42.710;23.378;2024-03-08T06:38:53;95311.84;;;4.71;100.00
20077;BME280;12348;42.710;23.378;2024-03-08T06:41:21;95323.06;;;4.95;100.00
20077;BME280;12348;42.710;23.378;2024-03-08T06:43:48;95322.72;;;5.14;100.00
20077;BME280;12348;42.710;23.378;2024-03-08T06:46:17;95325.25;;;5.25;100.00
20077;BME280;12348;42.710;23.378;2024-03-08T06:48:45;95321.28;;;5.28;100.00
20077;BME280;12348;42.710;23.378;2024-03-08T06:51:12;95324.78;;;4.62;100.00
20077;BME280;12348;42.710;23.378;2024-03-08T06:53:39;95327.59;;;4.73;100.00
20077;BME280;12348;42.710;23.378;2024-03-08T06:56:07;95329.78;;;4.59;100.00
20077;BME280;12348;42.710;23.378;2024-03-08T06:58:34;95325.59;;;4.85;100.00
20077;BME280;12348;42.710;23.378;2024-03-08T07:01:01;95335.91;;;4.98;100.00
20077;BME280;12348;42.710;23.378;2024-03-08T07:03:29;95338.41;;;5.32;100.00
20077;BME280;12348;42.710;23.378;2024-03-08T07:05:57;95333.44;;;5.68;100.00
20077;BME280;12348;42.710;23.378;2024-03-08T07:08:24;95336.97;;;6.05;100.00
20077;BME280;12348;42.710;23.378;2024-03-08T07:10:52;95342.22;;;6.27;100.00
20077;BME280;12348;42.710;23.378;2024-03-08T07:13:20;95336.94;;;6.85;100.00
20077;BME280;12348;42.710;23.378;2024-03-08T07:15:47;95342.84;;;6.92;100.00
20077;BME280;12348;42.710;23.378;2024-03-08T07:18:13;95341.31;;;7.07;100.00
20077;BME280;12348;42.710;23.378;2024-03-08T07:20:40;95339.75;;;7.21;100.00
20077;BME280;12348;42.710;23.378;2024-03-08T07:23:07;95339.72;;;7.16;100.00
20077;BME280;12348;42.710;23.378;2024-03-08T07:25:35;95337.63;;;7.28;100.00
20077;BME280;12348;42.710;23.378;2024-03-08T07:28:04;95344.84;;;7.22;100.00
20077;BME280;12348;42.710;23.378;2024-03-08T07:30:33;95350.53;;;7.46;100.00
20077;BME280;12348;42.710;23.378;2024-03-08T07:33:17;95345.97;;;7.37;100.00
20077;BME280;12348;42.710;23.378;2024-03-08T07:35:44;95353.00;;;7.58;100.00
20077;BME280;12348;42.710;23.378;2024-03-08T07:38:12;95345.22;;;7.72;100.00
20077;BME280;12348;42.710;23.378;2024-03-08T07:40:41;95344.97;;;7.84;100.00
20077;BME280;12348;42.710;23.378;2024-03-08T07:43:10;95350.53;;;7.46;100.00
20077;BME280;12348;42.710;23.378;2024-03-08T07:45:39;95354.81;;;7.42;100.00
20077;BME280;12348;42.710;23.378;2024-03-08T07:48:06;95350.53;;;7.41;100.00
20077;BME280;12348;42.710;23.378;2024-03-08T07:50:36;95352.59;;;7.24;100.00
20077;BME280;12348;42.710;23.378;2024-03-08T07:53:04;95352.59;;;7.24;100.00
20077;BME280;12348;42.710;23.378;2024-03-08T07:55:32;95350.53;;;7.36;100.00
20077;BME280;12348;42.710;23.378;2024-03-08T07:58:01;95349.50;;;7.68;100.00
20077;BME280;12348;42.710;23.378;2024-03-08T08:00:28;95342.03;;;8.06;100.00
20077;BME280;12348;42.710;23.378;2024-03-08T08:02:58;95342.31;;;8.50;100.00
20077;BME280;12348;42.710;23.378;2024-03-08T08:05:24;95341.69;;;8.94;100.00
20077;BME280;12348;42.710;23.378;2024-03-08T08:07:51;95343.31;;;9.50;100.00
20077;BME280;12348;42.710;23.378;2024-03-08T08:10:18;95331.97;;;10.02;100.00
20077;BME280;12348;42.710;23.378;2024-03-08T08:12:47;95347.13;;;10.56;100.00
20077;BME280;12348;42.710;23.378;2024-03-08T08:15:14;95346.56;;;10.59;97.01
20077;BME280;12348;42.710;23.378;2024-03-08T08:17:41;95352.75;;;10.60;86.42
20077;BME280;12348;42.710;23.378;2024-03-08T08:20:10;95350.00;;;11.18;82.75
20077;BME280;12348;42.710;23.378;2024-03-08T08:22:37;95346.09;;;12.10;79.64
20077;BME280;12348;42.710;23.378;2024-03-08T08:25:05;95335.50;;;12.46;74.19
20077;BME280;12348;42.710;23.378;2024-03-08T08:27:32;95333.00;;;13.10;67.50
20077;BME280;12348;42.710;23.378;2024-03-08T08:29:58;95328.94;;;13.76;72.48
20077;BME280;12348;42.710;23.378;2024-03-08T08:32:25;95333.47;;;14.48;72.19
20077;BME280;12348;42.710;23.378;2024-03-08T08:34:52;95338.63;;;14.27;63.34
20077;BME280;12348;42.710;23.378;2024-03-08T08:37:20;95346.59;;;13.74;61.17
20077;BME280;12348;42.710;23.378;2024-03-08T08:39:48;95334.53;;;14.16;63.25
20077;BME280;12348;42.710;23.378;2024-03-08T08:42:18;95334.81;;;13.01;62.80
20077;BME280;12348;42.710;23.378;2024-03-08T08:44:45;95340.03;;;13.39;61.96
20077;BME280;12348;42.710;23.378;2024-03-08T08:47:14;95334.56;;;14.39;62.02
20077;BME280;12348;42.710;23.378;2024-03-08T08:49:44;95328.56;;;13.55;58.17
20077;BME280;12348;42.710;23.378;2024-03-08T08:52:12;95327.72;;;14.95;60.22
20077;BME280;12348;42.710;23.378;2024-03-08T08:54:42;95332.38;;;15.03;56.83
20077;BME280;12348;42.710;23.378;2024-03-08T08:57:10;95331.41;;;15.39;55.28
20077;BME280;12348;42.710;23.378;2024-03-08T08:59:37;95335.56;;;14.06;55.13
20077;BME280;12348;42.710;23.378;2024-03-08T09:02:05;95331.22;;;13.19;58.66
20077;BME280;12348;42.710;23.378;2024-03-08T09:04:31;95321.09;;;13.11;60.44
20077;BME280;12348;42.710;23.378;2024-03-08T09:06:58;95322.19;;;12.17;66.88
20077;BME280;12348;42.710;23.378;2024-03-08T09:09:26;95325.06;;;12.40;66.82
20077;BME280;12348;42.710;23.378;2024-03-08T09:11:56;95318.06;;;12.71;68.22
20077;BME280;12348;42.710;23.378;2024-03-08T09:14:23;95315.38;;;13.13;64.20
20077;BME280;12348;42.710;23.378;2024-03-08T09:16:51;95308.97;;;13.36;63.75
20077;BME280;12348;42.710;23.378;2024-03-08T09:19:18;95311.84;;;13.67;60.52
20077;BME280;12348;42.710;23.378;2024-03-08T09:21:45;95309.53;;;13.61;61.72
20077;BME280;12348;42.710;23.378;2024-03-08T09:24:12;95311.09;;;13.89;58.94
20077;BME280;12348;42.710;23.378;2024-03-08T09:26:39;95310.75;;;13.13;58.95
20077;BME280;12348;42.710;23.378;2024-03-08T09:29:09;95312.44;;;14.45;58.21
20077;BME280;12348;42.710;23.378;2024-03-08T09:31:36;95312.25;;;15.35;55.75
20077;BME280;12348;42.710;23.378;2024-03-08T09:34:03;95312.84;;;15.89;52.58
20077;BME280;12348;42.710;23.378;2024-03-08T09:36:30;95314.88;;;14.78;52.49
20077;BME280;12348;42.710;23.378;2024-03-08T09:38:57;95309.28;;;14.07;54.33
20077;BME280;12348;42.710;23.378;2024-03-08T09:41:26;95311.47;;;13.60;55.78
20077;BME280;12348;42.710;23.378;2024-03-08T09:43:52;95313.84;;;13.62;56.39
20077;BME280;12348;42.710;23.378;2024-03-08T09:46:23;95314.41;;;14.31;53.82
20077;BME280;12348;42.710;23.378;2024-03-08T09:48:49;95314.84;;;14.69;53.87
20077;BME280;12348;42.710;23.378;2024-03-08T09:51:16;95313.16;;;14.15;53.96
20077;BME280;12348;42.710;23.378;2024-03-08T09:53:44;95315.91;;;13.28;55.67
20077;BME280;12348;42.710;23.378;2024-03-08T09:56:13;95317.31;;;13.76;55.21
20077;BME280;12348;42.710;23.378;2024-03-08T09:58:39;95307.66;;;12.78;56.12
20077;BME280;12348;42.710;23.378;2024-03-08T10:01:24;95306.75;;;12.83;59.32
20077;BME280;12348;42.710;23.378;2024-03-08T10:03:52;95313.97;;;13.56;57.53
20077;BME280;12348;42.710;23.378;2024-03-08T10:06:23;95313.47;;;14.81;54.28
20077;BME280;12348;42.710;23.378;2024-03-08T10:08:50;95305.09;;;16.78;50.60
20077;BME280;12348;42.710;23.378;2024-03-08T10:11:17;95307.25;;;17.40;49.78
20077;BME280;12348;42.710;23.378;2024-03-08T10:13:44;95303.25;;;17.97;48.39
20077;BME280;12348;42.710;23.378;2024-03-08T10:16:11;95305.13;;;17.46;48.48
20077;BME280;12348;42.710;23.378;2024-03-08T10:18:40;95302.09;;;16.45;49.23
20077;BME280;12348;42.710;23.378;2024-03-08T10:21:08;95303.19;;;16.70;49.35
20077;BME280;12348;42.710;23.378;2024-03-08T10:23:36;95306.25;;;17.75;46.65
20077;BME280;12348;42.710;23.378;2024-03-08T10:26:10;95298.16;;;19.07;46.02
20077;BME280;12348;42.710;23.378;2024-03-08T10:28:40;95298.16;;;19.07;45.06
20077;BME280;12348;42.710;23.378;2024-03-08T10:31:06;95297.16;;;19.12;45.73
20077;BME280;12348;42.710;23.378;2024-03-08T10:33:34;95289.72;;;17.80;46.40
20077;BME280;12348;42.710;23.378;2024-03-08T10:36:02;95294.91;;;16.32;47.87
20077;BME280;12348;42.710;23.378;2024-03-08T10:38:31;95306.94;;;15.21;50.75
20077;BME280;12348;42.710;23.378;2024-03-08T10:40:58;95303.28;;;14.55;51.21
20077;BME280;12348;42.710;23.378;2024-03-08T10:43:28;95292.31;;;13.56;53.95
20077;BME280;12348;42.710;23.378;2024-03-08T10:46:09;95295.56;;;14.26;53.49
20077;BME280;12348;42.710;23.378;2024-03-08T10:48:43;95291.22;;;14.16;53.42
20077;BME280;12348;42.710;23.378;2024-03-08T10:51:14;95286.50;;;13.63;54.19
20077;BME280;12348;42.710;23.378;2024-03-08T10:53:42;95282.00;;;12.62;57.16
20077;BME280;12348;42.710;23.378;2024-03-08T10:56:11;95284.41;;;13.60;55.83
20077;BME280;12348;42.710;23.378;2024-03-08T10:58:40;95281.91;;;14.85;53.01
20077;BME280;12348;42.710;23.378;2024-03-08T11:01:07;95273.22;;;16.14;49.76
20077;BME280;12348;42.710;23.378;2024-03-08T11:03:45;95274.50;;;15.91;49.71
20077;BME280;12348;42.710;23.378;2024-03-08T11:06:16;95278.31;;;16.24;47.04
20077;BME280;12348;42.710;23.378;2024-03-08T11:08:44;95274.22;;;13.79;52.07
20077;BME280;12348;42.710;23.378;2024-03-08T11:11:28;95276.69;;;14.12;53.64
20077;BME280;12348;42.710;23.378;2024-03-08T11:13:59;95266.56;;;14.80;52.43
20077;BME280;12348;42.710;23.378;2024-03-08T11:16:39;95262.91;;;15.24;50.57
20077;BME280;12348;42.710;23.378;2024-03-08T11:19:26;95259.91;;;15.52;48.45
20077;BME280;12348;42.710;23.378;2024-03-08T11:22:02;95260.28;;;16.11;48.36
20077;BME280;12348;42.710;23.378;2024-03-08T11:24:37;95259.09;;;16.47;47.73
20077;BME280;12348;42.710;23.378;2024-03-08T11:27:07;95264.78;;;16.71;47.83
20077;BME280;12348;42.710;23.378;2024-03-08T11:29:38;95255.47;;;16.90;46.43
20077;BME280;12348;42.710;23.378;2024-03-08T11:32:10;95259.44;;;16.37;46.25
20077;BME280;12348;42.710;23.378;2024-03-08T11:34:38;95256.44;;;16.21;47.28
20077;BME280;12348;42.710;23.378;2024-03-08T11:37:10;95246.03;;;16.14;47.80
20077;BME280;12348;42.710;23.378;2024-03-08T11:39:39;95243.94;;;16.29;47.05
20077;BME280;12348;42.710;23.378;2024-03-08T11:42:06;95256.19;;;14.82;48.60
20077;BME280;12348;42.710;23.378;2024-03-08T11:44:33;95244.28;;;13.62;51.77
20077;BME280;12348;42.710;23.378;2024-03-08T11:47:01;95253.91;;;12.91;53.83
20077;BME280;12348;42.710;23.378;2024-03-08T11:49:31;95252.00;;;12.17;56.05
20077;BME280;12348;42.710;23.378;2024-03-08T11:51:58;95246.31;;;12.79;54.93
20077;BME280;12348;42.710;23.378;2024-03-08T11:54:26;95241.47;;;13.45;53.46
20077;BME280;12348;42.710;23.378;2024-03-08T11:56:55;95249.25;;;14.05;52.74
20077;BME280;12348;42.710;23.378;2024-03-08T11:59:26;95242.91;;;14.63;51.04
20077;BME280;12348;42.710;23.378;2024-03-08T12:01:59;95245.84;;;14.75;50.12
20077;BME280;12348;42.710;23.378;2024-03-08T12:04:27;95240.34;;;15.07;48.03
20077;BME280;12348;42.710;23.378;2024-03-08T12:06:54;95232.38;;;15.19;47.72
20077;BME280;12348;42.710;23.378;2024-03-08T12:09:20;95248.13;;;14.91;49.67
20077;BME280;12348;42.710;23.378;2024-03-08T12:11:49;95230.16;;;14.41;51.29
20077;BME280;12348;42.710;23.378;2024-03-08T12:14:17;95238.97;;;14.78;48.87
20077;BME280;12348;42.710;23.378;2024-03-08T12:16:44;95246.59;;;14.45;49.58
20077;BME280;12348;42.710;23.378;2024-03-08T12:19:10;95239.88;;;14.11;50.99
20077;BME280;12348;42.710;23.378;2024-03-08T12:21:38;95240.50;;;13.86;51.97
20077;BME280;12348;42.710;23.378;2024-03-08T12:24:15;95239.47;;;13.59;53.42
20077;BME280;12348;42.710;23.378;2024-03-08T12:26:45;95232.72;;;13.48;53.06
20077;BME280;12348;42.710;23.378;2024-03-08T12:29:22;95241.09;;;13.24;52.85
20077;BME280;12348;42.710;23.378;2024-03-08T12:31:54;95239.00;;;12.79;54.55
20077;BME280;12348;42.710;23.378;2024-03-08T12:34:21;95232.19;;;12.82;54.89
20077;BME280;12348;42.710;23.378;2024-03-08T12:36:48;95230.78;;;12.57;53.48
20077;BME280;12348;42.710;23.378;2024-03-08T12:39:17;95225.13;;;12.12;55.36
20077;BME280;12348;42.710;23.378;2024-03-08T12:41:48;95226.22;;;12.25;55.50
20077;BME280;12348;42.710;23.378;2024-03-08T12:44:14;95229.72;;;12.11;57.50
20077;BME280;12348;42.710;23.378;2024-03-08T12:46:44;95221.47;;;11.70;56.10
20077;BME280;12348;42.710;23.378;2024-03-08T12:49:11;95222.16;;;11.43;57.74
20077;BME280;12348;42.710;23.378;2024-03-08T12:51:38;95222.53;;;11.36;56.49
20077;BME280;12348;42.710;23.378;2024-03-08T12:54:05;95218.84;;;10.89;57.60
20077;BME280;12348;42.710;23.378;2024-03-08T12:56:34;95214.09;;;11.24;56.53